Temp: 11.6°C   Baro: 993.1mb
  Wind: 4.9mph   Dir: SSE (168°)
  Rain: 0.8mm (0.0mm/hr)
  Solar: 0W/m2  Hum: 76%
 
Bath Spa Weather Station Historical Data
Daily Summary for July 04, 2020 Units:  English    Metric   Both
Daily Weekly Monthly Yearly Custom
  High: Low: Average:
Temperature: 64.8 °F 59.2 °F 61.8 °F
Dew Point: 60.9 °F 55.9 °F 58.6 °F
Humidity: 93% 84% 89%
Wind Speed: 10.8mph 2.5mph 6.3mph
Wind Gust: 19mph - -
Wind- - WSW
Pressure: 29.89 in 29.82 in -
Precipitation: 0.04 in    
Historical Graphs
 
 
Tabular Data for July 04, 2020
Time Temperature Dew Point Pressure Wind Wind Speed Wind Gust Humidity Rainfall Rate (Hourly) solar
00:04 59.2 °F 55.9 °F 29.89 in SW 5.7 mph 10 mph 89% 0.00 in 0 W/m2
00:09 59.2 °F 56.1 °F 29.89 in WSW 6.5 mph 10 mph 89.6% 0.00 in 0 W/m2
00:14 59.2 °F 56.3 °F 29.89 in SW 5.6 mph 12 mph 90% 0.00 in 0 W/m2
00:19 59.2 °F 56.3 °F 29.89 in SW 4.1 mph 14 mph 90% 0.00 in 0 W/m2
00:24 59.2 °F 56.3 °F 29.88 in SW 4.8 mph 10 mph 90% 0.00 in 0 W/m2
00:29 59.2 °F 56.3 °F 29.88 in SW 6 mph 10 mph 90% 0.00 in 0 W/m2
00:34 59.2 °F 56.3 °F 29.88 in SW 5.6 mph 11 mph 90% 0.00 in 0 W/m2
00:39 59.2 °F 56.4 °F 29.88 in SW 5.5 mph 11 mph 90.4% 0.00 in 0 W/m2
00:44 59.2 °F 56.5 °F 29.88 in SW 3.3 mph 8 mph 91% 0.00 in 0 W/m2
00:49 59.2 °F 56.5 °F 29.88 in SSW 4 mph 12 mph 91% 0.00 in 0 W/m2
00:54 59.2 °F 56.5 °F 29.87 in SW 6.7 mph 12 mph 91% 0.00 in 0 W/m2
00:59 59.3 °F 56.6 °F 29.87 in SW 7.6 mph 15 mph 91% 0.00 in 0 W/m2
01:04 59.3 °F 56.6 °F 29.87 in SW 6.6 mph 12 mph 91% 0.00 in 0 W/m2
01:09 59.4 °F 56.7 °F 29.86 in SW 7 mph 13 mph 91% 0.00 in 0 W/m2
01:14 59.4 °F 56.7 °F 29.86 in SW 2.8 mph 12 mph 91% 0.00 in 0 W/m2
01:19 59.4 °F 56.7 °F 29.86 in WSW 6.2 mph 13 mph 91% 0.00 in 0 W/m2
01:24 59.4 °F 56.7 °F 29.86 in West 6.4 mph 13 mph 91% 0.00 in 0 W/m2
01:29 59.4 °F 56.7 °F 29.86 in SW 5.3 mph 11 mph 91% 0.00 in 0 W/m2
01:34 59.4 °F 56.7 °F 29.86 in SW 5.3 mph 9 mph 91% 0.00 in 0 W/m2
01:39 59.5 °F 56.9 °F 29.86 in SW 5.7 mph 11 mph 91.2% 0.00 in 0 W/m2
01:44 59.4 °F 56.9 °F 29.86 in WSW 6.7 mph 11 mph 91.6% 0.01 in 0 W/m2
01:49 59.4 °F 57 °F 29.86 in WSW 5.2 mph 10 mph 92% 0.02 in 0 W/m2
01:54 59.5 °F 57.1 °F 29.86 in West 3.4 mph 10 mph 92% 0.02 in 0 W/m2
01:59 59.4 °F 57 °F 29.85 in WSW 7.3 mph 12 mph 92% 0.02 in 0 W/m2
02:04 59.5 °F 57.2 °F 29.85 in WSW 5.8 mph 12 mph 92% 0.02 in 0 W/m2
02:09 59.5 °F 57.2 °F 29.85 in SW 6.2 mph 15 mph 92% 0.02 in 0 W/m2
02:14 59.5 °F 57.2 °F 29.85 in WSW 8.4 mph 12 mph 92% 0.02 in 0 W/m2
02:19 59.5 °F 57.2 °F 29.85 in West 6.6 mph 11 mph 92% 0.02 in 0 W/m2
02:24 59.5 °F 57.2 °F 29.85 in WSW 6.4 mph 15 mph 92% 0.02 in 0 W/m2
02:29 59.5 °F 57.2 °F 29.85 in SW 8.5 mph 15 mph 92% 0.02 in 0 W/m2
02:34 59.6 °F 57.1 °F 29.84 in WSW 6 mph 15 mph 91.4% 0.02 in 0 W/m2
02:39 59.7 °F 57 °F 29.84 in WSW 6.8 mph 11 mph 91% 0.02 in 0 W/m2
02:44 59.7 °F 57 °F 29.84 in SW 6.2 mph 11 mph 91% 0.01 in 0 W/m2
02:49 59.7 °F 57 °F 29.84 in SW 8 mph 13 mph 91% 0.00 in 0 W/m2
02:54 59.7 °F 57 °F 29.84 in WSW 6.8 mph 14 mph 91% 0.00 in 0 W/m2
02:59 59.7 °F 57 °F 29.84 in SW 5.4 mph 12 mph 91% 0.00 in 0 W/m2
03:04 59.8 °F 57.1 °F 29.84 in SW 8.2 mph 12 mph 91% 0.00 in 0 W/m2
03:14 59.9 °F 57.2 °F 29.84 in WSW 4.9 mph 14 mph 91% 0.00 in 0 W/m2
03:19 60 °F 57.3 °F 29.83 in SW 6 mph 14 mph 91% 0.00 in 0 W/m2
03:24 60.1 °F 57.4 °F 29.83 in WSW 5.1 mph 12 mph 91% 0.00 in 0 W/m2
03:29 60.1 °F 57.4 °F 29.83 in WSW 7.4 mph 13 mph 91% 0.00 in 0 W/m2
03:34 60.1 °F 57.4 °F 29.83 in SW 8.5 mph 14 mph 91% 0.00 in 0 W/m2
03:39 60.1 °F 57.4 °F 29.83 in SW 8.7 mph 14 mph 91% 0.00 in 0 W/m2
03:44 60.3 °F 57.6 °F 29.83 in WSW 6.6 mph 14 mph 91% 0.00 in 0 W/m2
03:49 60.3 °F 57.5 °F 29.83 in SW 9.6 mph 17 mph 90.6% 0.00 in 0 W/m2
03:54 60.3 °F 57.4 °F 29.83 in WSW 9.4 mph 15 mph 90% 0.00 in 0 W/m2
03:59 60.3 °F 57.4 °F 29.83 in WSW 6.2 mph 13 mph 90% 0.00 in 0 W/m2
04:04 60.3 °F 57.4 °F 29.83 in SW 6.8 mph 14 mph 90% 0.00 in 0 W/m2
04:09 60.3 °F 57.4 °F 29.83 in WSW 5.8 mph 15 mph 90% 0.00 in 0 W/m2
04:14 60.4 °F 57.6 °F 29.83 in SW 6.7 mph 13 mph 90% 0.00 in 0 W/m2
04:19 60.4 °F 57.6 °F 29.83 in SW 7 mph 11 mph 90% 0.00 in 0 W/m2
04:24 60.4 °F 57.6 °F 29.83 in WSW 5.8 mph 12 mph 90% 0.00 in 0 W/m2
04:29 60.4 °F 57.6 °F 29.83 in WSW 5.6 mph 12 mph 90% 0.00 in 0 W/m2
04:34 60.4 °F 57.6 °F 29.83 in West 6 mph 13 mph 90% 0.00 in 0 W/m2
04:39 60.4 °F 57.6 °F 29.83 in SW 6.6 mph 12 mph 90% 0.00 in 0 W/m2
04:44 60.4 °F 57.6 °F 29.83 in WSW 4.2 mph 13 mph 90% 0.00 in 0 W/m2
04:49 60.5 °F 57.7 °F 29.83 in SW 3.6 mph 13 mph 90% 0.00 in 0 W/m2
04:54 60.5 °F 57.6 °F 29.83 in WSW 5.8 mph 10 mph 90% 0.00 in 0 W/m2
04:59 60.6 °F 57.7 °F 29.83 in WSW 5.7 mph 11 mph 90% 0.00 in 0 W/m2
05:04 60.6 °F 57.7 °F 29.83 in SW 5.2 mph 12 mph 90% 0.00 in 0 W/m2
05:09 60.6 °F 57.7 °F 29.82 in WSW 7.6 mph 14 mph 90% 0.00 in 0 W/m2
05:14 60.6 °F 57.7 °F 29.82 in WSW 6.4 mph 12 mph 90% 0.00 in 0 W/m2
05:19 60.6 °F 57.7 °F 29.82 in SW 7.4 mph 12 mph 90% 0.00 in 0 W/m2
05:24 60.6 °F 57.7 °F 29.82 in WSW 6.8 mph 13 mph 90% 0.00 in 0 W/m2
05:29 60.6 °F 57.7 °F 29.83 in SW 10 mph 14 mph 90% 0.00 in 0 W/m2
05:34 60.6 °F 57.7 °F 29.83 in WSW 4.8 mph 11 mph 90% 0.00 in 5 W/m2
05:39 60.5 °F 57.6 °F 29.83 in SW 5.5 mph 10 mph 90% 0.00 in 11 W/m2
05:44 60.4 °F 57.6 °F 29.83 in West 4.7 mph 13 mph 90.2% 0.00 in 12 W/m2
05:49 60.4 °F 57.7 °F 29.82 in WSW 7.2 mph 13 mph 90.6% 0.00 in 12 W/m2
05:54 60.4 °F 57.7 °F 29.82 in SW 5.8 mph 12 mph 90.6% 0.00 in 19 W/m2
05:59 60.4 °F 57.7 °F 29.82 in WSW 5.4 mph 9 mph 91% 0.00 in 30 W/m2
06:04 60.4 °F 57.7 °F 29.82 in SW 7.4 mph 13 mph 91% 0.00 in 28 W/m2
06:09 60.4 °F 57.7 °F 29.83 in WSW 6.3 mph 11 mph 91% 0.00 in 19 W/m2
06:14 60.4 °F 57.7 °F 29.83 in WSW 5.4 mph 12 mph 91% 0.00 in 25 W/m2
06:19 60.4 °F 57.7 °F 29.83 in WSW 5.5 mph 13 mph 91% 0.00 in 23 W/m2
06:24 60.4 °F 57.7 °F 29.83 in SW 6.6 mph 13 mph 91% 0.00 in 28 W/m2
06:29 60.4 °F 57.7 °F 29.83 in WSW 6.6 mph 13 mph 91% 0.00 in 26 W/m2
06:34 60.4 °F 57.7 °F 29.83 in WSW 6.1 mph 11 mph 91% 0.00 in 26 W/m2
06:39 60.4 °F 57.7 °F 29.84 in WSW 5.2 mph 10 mph 91% 0.00 in 26 W/m2
06:44 60.4 °F 57.7 °F 29.84 in West 4.3 mph 9 mph 91% 0.00 in 32 W/m2
06:49 60.3 °F 57.9 °F 29.83 in WSW 3.7 mph 8 mph 92% 0.00 in 33 W/m2
06:54 60.3 °F 58 °F 29.83 in West 4.8 mph 11 mph 92% 0.00 in 51 W/m2
06:59 60.3 °F 57.9 °F 29.83 in WSW 3.6 mph 9 mph 92% 0.00 in 44 W/m2
07:04 60.4 °F 58.1 °F 29.83 in WSW 6.2 mph 9 mph 92% 0.00 in 37 W/m2
07:09 60.4 °F 58.1 °F 29.83 in West 3.5 mph 9 mph 92% 0.00 in 37 W/m2
07:14 60.4 °F 58.1 °F 29.83 in West 6 mph 9 mph 92% 0.00 in 42 W/m2
07:19 60.4 °F 58.1 °F 29.84 in West 7.6 mph 13 mph 92% 0.00 in 49 W/m2
07:24 60.4 °F 58.1 °F 29.83 in West 4.2 mph 10 mph 92% 0.00 in 54 W/m2
07:29 60.4 °F 58.1 °F 29.83 in WNW 4 mph 10 mph 92% 0.00 in 60 W/m2
07:34 60.4 °F 58.1 °F 29.83 in West 4.9 mph 12 mph 92% 0.00 in 91 W/m2
07:39 60.4 °F 58.1 °F 29.83 in West 5.1 mph 9 mph 92% 0.00 in 83 W/m2
07:44 60.6 °F 58.3 °F 29.83 in West 5.3 mph 8 mph 92% 0.00 in 58 W/m2
07:49 60.6 °F 58.3 °F 29.83 in WSW 7.2 mph 14 mph 92% 0.00 in 79 W/m2
07:54 60.7 °F 58.4 °F 29.83 in West 5.3 mph 13 mph 92% 0.00 in 111 W/m2
07:59 60.8 °F 58.5 °F 29.83 in WSW 7.5 mph 14 mph 92% 0.00 in 88 W/m2
08:04 61 °F 58.6 °F 29.84 in West 5.3 mph 10 mph 92% 0.00 in 70 W/m2
08:09 61.2 °F 58.6 °F 29.84 in WSW 5.7 mph 9 mph 91.6% 0.00 in 79 W/m2
08:14 61.2 °F 58.5 °F 29.84 in WSW 6.3 mph 13 mph 91% 0.00 in 100 W/m2
08:19 61.3 °F 58.6 °F 29.84 in West 5.5 mph 13 mph 91% 0.00 in 169 W/m2
08:24 61.4 °F 58.7 °F 29.84 in WSW 4.8 mph 12 mph 91% 0.00 in 167 W/m2
08:29 61.5 °F 58.7 °F 29.84 in WSW 5.6 mph 11 mph 90.8% 0.00 in 70 W/m2
08:34 61.3 °F 58.5 °F 29.83 in WSW 8.7 mph 12 mph 90% 0.00 in 60 W/m2
08:39 61.3 °F 58.5 °F 29.84 in WSW 5.4 mph 11 mph 90% 0.00 in 56 W/m2
08:44 61.4 °F 58.5 °F 29.84 in WSW 7 mph 15 mph 90% 0.00 in 95 W/m2
08:49 61.5 °F 58.4 °F 29.84 in West 7.4 mph 12 mph 89.4% 0.00 in 77 W/m2
08:54 61.7 °F 58.5 °F 29.83 in WSW 8.8 mph 14 mph 89% 0.00 in 90 W/m2
08:59 61.9 °F 58.6 °F 29.83 in WSW 5.7 mph 11 mph 89% 0.00 in 90 W/m2
09:04 61.9 °F 58.6 °F 29.83 in WSW 8.4 mph 15 mph 88.8% 0.00 in 102 W/m2
09:09 62.1 °F 58.5 °F 29.83 in WSW 6.2 mph 15 mph 88% 0.00 in 114 W/m2
09:14 62.1 °F 58.5 °F 29.83 in SW 7.8 mph 11 mph 88% 0.00 in 132 W/m2
09:19 62.2 °F 58.5 °F 29.83 in WSW 8.6 mph 14 mph 87.8% 0.00 in 158 W/m2
09:24 62.3 °F 58.6 °F 29.83 in SW 4.8 mph 11 mph 87.6% 0.00 in 149 W/m2
09:29 62.4 °F 58.5 °F 29.83 in WSW 7.8 mph 12 mph 87% 0.00 in 118 W/m2
09:34 62.4 °F 58.5 °F 29.83 in WSW 5.3 mph 13 mph 87% 0.00 in 155 W/m2
09:39 62.5 °F 58.5 °F 29.83 in West 8 mph 13 mph 87% 0.00 in 174 W/m2
09:44 62.7 °F 58.4 °F 29.83 in WSW 7 mph 14 mph 86% 0.00 in 185 W/m2
09:49 62.9 °F 58.8 °F 29.83 in West 7.4 mph 15 mph 86.6% 0.00 in 178 W/m2
09:54 62.9 °F 58.6 °F 29.83 in WSW 9.2 mph 18 mph 86% 0.00 in 192 W/m2
09:59 62.8 °F 58.5 °F 29.83 in WSW 10.4 mph 18 mph 86% 0.00 in 179 W/m2
10:04 62.8 °F 58.5 °F 29.83 in WSW 7.9 mph 14 mph 86% 0.00 in 121 W/m2
10:09 62.8 °F 58.5 °F 29.83 in West 7.1 mph 16 mph 86% 0.00 in 153 W/m2
10:14 62.8 °F 58.5 °F 29.84 in West 7.6 mph 13 mph 86% 0.00 in 141 W/m2
10:19 62.8 °F 58.5 °F 29.84 in WSW 9.2 mph 17 mph 86% 0.00 in 95 W/m2
10:24 62.8 °F 58.5 °F 29.84 in WSW 7.4 mph 15 mph 86% 0.00 in 176 W/m2
10:29 63 °F 58.6 °F 29.84 in West 6.4 mph 15 mph 86% 0.00 in 128 W/m2
10:34 63 °F 58.6 °F 29.84 in SW 5.7 mph 10 mph 86% 0.00 in 130 W/m2
10:39 63 °F 58.6 °F 29.84 in WSW 8.6 mph 14 mph 86% 0.00 in 151 W/m2
10:44 63 °F 58.6 °F 29.84 in West 6.4 mph 13 mph 85.8% 0.00 in 149 W/m2
10:49 63.1 °F 58.6 °F 29.84 in West 7 mph 15 mph 85% 0.00 in 156 W/m2
10:54 63.1 °F 58.6 °F 29.84 in WSW 9.1 mph 16 mph 85% 0.00 in 109 W/m2
10:59 63.1 °F 58.6 °F 29.84 in WSW 8.6 mph 16 mph 85% 0.00 in 127 W/m2
11:04 63.1 °F 58.6 °F 29.84 in West 6.3 mph 16 mph 85% 0.00 in 190 W/m2
11:09 63.2 °F 58.7 °F 29.83 in West 5.3 mph 12 mph 85% 0.00 in 192 W/m2
11:14 63.3 °F 58.8 °F 29.83 in WSW 8.2 mph 13 mph 85% 0.00 in 181 W/m2
11:19 63.3 °F 58.8 °F 29.84 in WSW 7.5 mph 11 mph 85% 0.00 in 151 W/m2
11:24 63.4 °F 58.8 °F 29.84 in WSW 6.1 mph 12 mph 85% 0.00 in 174 W/m2
11:29 63.4 °F 58.8 °F 29.84 in SW 7.2 mph 14 mph 85% 0.00 in 167 W/m2
11:34 63.5 °F 58.8 °F 29.83 in SW 6.6 mph 13 mph 85% 0.00 in 188 W/m2
11:39 63.7 °F 59 °F 29.83 in WSW 5.9 mph 11 mph 85% 0.00 in 227 W/m2
11:44 63.8 °F 59.1 °F 29.83 in WSW 6.1 mph 11 mph 85% 0.00 in 223 W/m2
11:49 63.9 °F 59.1 °F 29.83 in WSW 9.3 mph 11 mph 84.5% 0.00 in 188 W/m2
11:54 64 °F 59.2 °F 29.83 in WSW 7.4 mph 12 mph 84% 0.00 in 206 W/m2
11:59 64 °F 59.2 °F 29.83 in WSW 5.2 mph 14 mph 84% 0.00 in 202 W/m2
12:04 64.2 °F 59.4 °F 29.83 in WSW 5.9 mph 15 mph 84% 0.00 in 192 W/m2
12:09 64.2 °F 59.4 °F 29.83 in West 7.2 mph 15 mph 84% 0.00 in 193 W/m2
12:14 64.1 °F 59.3 °F 29.84 in WSW 8.4 mph 14 mph 84% 0.00 in 88 W/m2
12:19 64 °F 59.2 °F 29.83 in WSW 5.4 mph 12 mph 84% 0.00 in 116 W/m2
12:24 64 °F 59.2 °F 29.84 in WSW 6 mph 12 mph 84% 0.00 in 107 W/m2
12:29 64 °F 59.2 °F 29.84 in SW 10.2 mph 17 mph 84% 0.00 in 132 W/m2
12:34 64 °F 59.2 °F 29.84 in SW 8.7 mph 15 mph 84% 0.00 in 130 W/m2
12:39 64.2 °F 59.4 °F 29.84 in West 5.8 mph 15 mph 84% 0.00 in 120 W/m2
12:44 64.2 °F 59.4 °F 29.84 in WSW 7.2 mph 14 mph 84% 0.00 in 105 W/m2
12:49 64.2 °F 59.4 °F 29.84 in WSW 8.6 mph 16 mph 84% 0.00 in 88 W/m2
12:54 64.2 °F 59.4 °F 29.84 in WSW 6.6 mph 11 mph 84% 0.00 in 120 W/m2
12:59 64.4 °F 59.6 °F 29.84 in WSW 5.8 mph 11 mph 84.4% 0.00 in 162 W/m2
13:04 64.5 °F 59.8 °F 29.84 in WSW 8.8 mph 15 mph 85% 0.00 in 218 W/m2
13:09 64.7 °F 59.8 °F 29.84 in West 6.6 mph 15 mph 84% 0.00 in 204 W/m2
13:14 64.8 °F 59.9 °F 29.84 in West 7.7 mph 16 mph 84% 0.00 in 278 W/m2
13:19 64.8 °F 60 °F 29.84 in West 7 mph 17 mph 84.6% 0.00 in 264 W/m2
13:24 64.4 °F 60 °F 29.84 in WSW 9.2 mph 14 mph 85.8% 0.00 in 221 W/m2
13:29 64.2 °F 59.9 °F 29.84 in West 8 mph 18 mph 86% 0.00 in 151 W/m2
13:34 64.2 °F 59.9 °F 29.84 in WSW 10.6 mph 18 mph 86% 0.00 in 125 W/m2
13:39 64.2 °F 59.9 °F 29.84 in West 7.5 mph 16 mph 86% 0.00 in 141 W/m2
13:44 64.1 °F 59.8 °F 29.84 in West 5.9 mph 13 mph 86% 0.00 in 130 W/m2
13:49 64 °F 60.1 °F 29.84 in West 5.6 mph 12 mph 87% 0.00 in 141 W/m2
13:54 64 °F 60 °F 29.84 in West 6.6 mph 10 mph 87% 0.01 in 90 W/m2
13:59 63.8 °F 59.9 °F 29.84 in West 4.5 mph 10 mph 87.3% 0.01 in 113 W/m2
14:04 63.7 °F 60.1 °F 29.83 in WSW 5.2 mph 10 mph 88% 0.01 in 114 W/m2
14:09 63.9 °F 60.3 °F 29.83 in WSW 4.5 mph 10 mph 88% 0.01 in 105 W/m2
14:14 63.9 °F 60.3 °F 29.83 in WSW 8 mph 12 mph 88% 0.01 in 144 W/m2
14:19 63.9 °F 60.3 °F 29.84 in WSW 7 mph 13 mph 88% 0.01 in 153 W/m2
14:24 63.9 °F 60.3 °F 29.83 in WSW 6.8 mph 13 mph 88% 0.01 in 125 W/m2
14:29 64 °F 60.4 °F 29.83 in WSW 5.6 mph 10 mph 88% 0.01 in 114 W/m2
14:34 64 °F 60.4 °F 29.83 in West 6.4 mph 12 mph 88% 0.01 in 107 W/m2
14:39 64 °F 60.4 °F 29.83 in West 5.7 mph 13 mph 88% 0.01 in 107 W/m2
14:44 64 °F 60.4 °F 29.83 in West 3.5 mph 7 mph 88% 0.01 in 107 W/m2
14:49 63.6 °F 60.4 °F 29.83 in West 3.6 mph 8 mph 89% 0.02 in 104 W/m2
14:53 63.3 °F 60.3 °F 29.83 in West 2.7 mph 8 mph 89.8% 0.02 in 153 W/m2
14:59 63.3 °F 60.3 °F 29.83 in West 4 mph 8 mph 90% 0.01 in 160 W/m2
15:04 63.1 °F 60.1 °F 29.83 in WNW 3.7 mph 6 mph 90% 0.01 in 199 W/m2
15:09 63.3 °F 60.6 °F 29.83 in WNW 3.7 mph 7 mph 91% 0.01 in 176 W/m2
15:14 63.3 °F 60.6 °F 29.83 in WNW 5.7 mph 10 mph 91% 0.01 in 151 W/m2
15:24 63.1 °F 60.4 °F 29.83 in WNW 7.3 mph 10 mph 91% 0.01 in 149 W/m2
15:29 63 °F 60.5 °F 29.83 in NW 6.8 mph 12 mph 91.8% 0.01 in 155 W/m2
15:34 63 °F 60.5 °F 29.83 in WNW 5.4 mph 12 mph 91.6% 0.01 in 197 W/m2
15:39 62.9 °F 60.5 °F 29.83 in WNW 7 mph 13 mph 92% 0.01 in 149 W/m2
15:44 63 °F 60.6 °F 29.83 in WNW 5.4 mph 13 mph 92% 0.01 in 197 W/m2
15:49 63 °F 60.7 °F 29.83 in WNW 6.6 mph 12 mph 92% 0.01 in 202 W/m2
15:54 63.2 °F 60.9 °F 29.83 in WNW 5.4 mph 11 mph 92% 0.00 in 176 W/m2
15:59 63.4 °F 60.9 °F 29.83 in WNW 6.2 mph 14 mph 91.4% 0.00 in 149 W/m2
16:04 63.4 °F 60.7 °F 29.84 in NW 7.4 mph 12 mph 91% 0.00 in 116 W/m2
16:09 63.2 °F 60.5 °F 29.84 in WNW 5.9 mph 12 mph 91% 0.00 in 102 W/m2
16:14 63.1 °F 60.4 °F 29.84 in WNW 6 mph 10 mph 91% 0.00 in 93 W/m2
16:19 63.1 °F 60.4 °F 29.84 in NW 5.8 mph 11 mph 91% 0.00 in 84 W/m2
16:24 63 °F 60.3 °F 29.84 in WNW 4.5 mph 11 mph 91% 0.00 in 97 W/m2
16:29 62.9 °F 60.2 °F 29.84 in West 6.3 mph 11 mph 91% 0.00 in 114 W/m2
16:34 62.7 °F 60 °F 29.84 in West 7 mph 12 mph 91% 0.00 in 171 W/m2
16:39 62.5 °F 59.8 °F 29.84 in WNW 6.8 mph 16 mph 91% 0.00 in 186 W/m2
16:44 62.5 °F 59.8 °F 29.84 in West 8.6 mph 15 mph 91% 0.00 in 186 W/m2
16:49 62.6 °F 59.9 °F 29.84 in West 6 mph 13 mph 91% 0.00 in 230 W/m2
16:54 62.6 °F 59.9 °F 29.84 in West 7.5 mph 14 mph 91% 0.00 in 156 W/m2
16:59 62.6 °F 59.9 °F 29.84 in WNW 7.8 mph 13 mph 91% 0.00 in 142 W/m2
17:04 62.5 °F 59.8 °F 29.84 in WNW 6.3 mph 15 mph 91% 0.00 in 132 W/m2
17:09 62.5 °F 59.8 °F 29.84 in WNW 6.6 mph 15 mph 91% 0.00 in 116 W/m2
17:14 62.6 °F 59.9 °F 29.84 in WNW 5.6 mph 11 mph 91% 0.00 in 113 W/m2
17:19 62.6 °F 59.6 °F 29.84 in WNW 6.7 mph 15 mph 90.2% 0.00 in 102 W/m2
17:24 62.8 °F 59.7 °F 29.84 in West 6.6 mph 16 mph 90% 0.00 in 120 W/m2
17:29 62.6 °F 59.5 °F 29.85 in West 9 mph 19 mph 90% 0.00 in 155 W/m2
17:34 62.4 °F 59.5 °F 29.84 in WNW 6.8 mph 15 mph 90.2% 0.00 in 163 W/m2
17:39 62.2 °F 59.5 °F 29.84 in West 8.2 mph 14 mph 91% 0.00 in 142 W/m2
17:44 62.2 °F 59.5 °F 29.84 in West 9.5 mph 13 mph 91% 0.00 in 139 W/m2
17:49 62.1 °F 59.4 °F 29.84 in WNW 7.6 mph 14 mph 91% 0.00 in 141 W/m2
17:54 61.9 °F 59.4 °F 29.85 in West 6.2 mph 14 mph 91.6% 0.00 in 146 W/m2
17:58 61.9 °F 59.5 °F 29.84 in WNW 8 mph 16 mph 92% 0.00 in 149 W/m2
18:04 61.9 °F 59.5 °F 29.84 in WNW 7.4 mph 15 mph 92% 0.00 in 188 W/m2
18:09 62 °F 59.6 °F 29.84 in WNW 8 mph 11 mph 92% 0.00 in 216 W/m2
18:14 62.1 °F 59.7 °F 29.84 in West 5.6 mph 10 mph 92% 0.00 in 142 W/m2
18:19 62.1 °F 59.8 °F 29.84 in WNW 4.2 mph 10 mph 92.2% 0.00 in 98 W/m2
18:24 61.9 °F 59.9 °F 29.84 in West 4.3 mph 12 mph 93% 0.00 in 81 W/m2
18:29 61.9 °F 59.9 °F 29.84 in WNW 6.4 mph 11 mph 93% 0.00 in 63 W/m2
18:33 61.9 °F 59.9 °F 29.84 in WNW 7.2 mph 12 mph 93% 0.00 in 72 W/m2
18:39 61.7 °F 59.7 °F 29.84 in WNW 6.5 mph 12 mph 93% 0.00 in 95 W/m2
18:44 61.6 °F 59.6 °F 29.84 in WNW 7.8 mph 12 mph 93% 0.00 in 65 W/m2
18:49 61.8 °F 59.8 °F 29.84 in WNW 5.9 mph 11 mph 93% 0.00 in 74 W/m2
18:54 61.8 °F 59.8 °F 29.84 in West 5.9 mph 11 mph 93% 0.00 in 65 W/m2
18:59 61.9 °F 59.9 °F 29.84 in West 4.1 mph 11 mph 93% 0.00 in 62 W/m2
19:04 61.9 °F 59.9 °F 29.84 in WNW 4.4 mph 7 mph 93% 0.00 in 54 W/m2
19:08 61.7 °F 59.7 °F 29.84 in WNW 5.7 mph 9 mph 93% 0.00 in 46 W/m2
19:14 61.9 °F 59.9 °F 29.84 in WNW 3.6 mph 8 mph 93% 0.00 in 46 W/m2
19:19 61.9 °F 59.9 °F 29.84 in West 4.1 mph 10 mph 93% 0.00 in 42 W/m2
19:24 62 °F 60 °F 29.84 in WSW 5.2 mph 9 mph 93% 0.00 in 46 W/m2
19:29 62.1 °F 59.8 °F 29.84 in West 4.9 mph 11 mph 92.2% 0.00 in 37 W/m2
19:34 62.1 °F 59.7 °F 29.84 in WNW 4.5 mph 9 mph 92% 0.00 in 33 W/m2
19:39 62.1 °F 59.7 °F 29.84 in WNW 3.7 mph 10 mph 92% 0.00 in 33 W/m2
19:44 62.2 °F 59.9 °F 29.83 in WNW 6 mph 9 mph 92% 0.00 in 30 W/m2
19:49 62.2 °F 59.9 °F 29.83 in West 2.9 mph 8 mph 92% 0.00 in 28 W/m2
19:54 62.2 °F 59.9 °F 29.83 in West 2.5 mph 7 mph 92% 0.00 in 25 W/m2
19:59 62.2 °F 59.5 °F 29.83 in WNW 4.8 mph 7 mph 91% 0.00 in 25 W/m2
20:04 62.3 °F 59.6 °F 29.83 in West 4.4 mph 6 mph 91% 0.00 in 23 W/m2
20:09 62.4 °F 59.7 °F 29.84 in West 4.5 mph 10 mph 91% 0.00 in 19 W/m2
20:14 62.4 °F 59.7 °F 29.84 in West 5.3 mph 8 mph 91% 0.00 in 19 W/m2
20:19 62.4 °F 59.4 °F 29.83 in West 4.4 mph 9 mph 90% 0.00 in 16 W/m2
20:24 62.4 °F 59.4 °F 29.84 in West 6.4 mph 12 mph 90% 0.00 in 14 W/m2
20:29 62.4 °F 59.4 °F 29.84 in West 3.7 mph 9 mph 90% 0.00 in 16 W/m2
20:34 62.4 °F 59.4 °F 29.83 in West 6.5 mph 14 mph 89.8% 0.00 in 16 W/m2
20:39 62.5 °F 59.3 °F 29.83 in West 6.2 mph 17 mph 89% 0.01 in 12 W/m2
20:44 62.6 °F 59.4 °F 29.83 in West 7.6 mph 13 mph 89% 0.01 in 12 W/m2
20:49 62.6 °F 59.3 °F 29.84 in West 5.5 mph 11 mph 89% 0.01 in 11 W/m2
20:54 62.5 °F 59.3 °F 29.84 in West 4.5 mph 7 mph 89% 0.01 in 7 W/m2
20:59 62.4 °F 59.2 °F 29.83 in West 3.4 mph 9 mph 89% 0.01 in 5 W/m2
21:04 62.4 °F 59.2 °F 29.84 in West 5.2 mph 9 mph 89% 0.01 in 0 W/m2
21:09 62.5 °F 59.1 °F 29.84 in West 4.2 mph 10 mph 88.5% 0.01 in 0 W/m2
21:14 62.5 °F 58.9 °F 29.84 in WSW 5.4 mph 12 mph 88% 0.01 in 0 W/m2
21:19 62.4 °F 58.8 °F 29.84 in West 5.2 mph 12 mph 88% 0.01 in 0 W/m2
21:24 62.4 °F 58.8 °F 29.84 in WSW 10.8 mph 17 mph 88% 0.01 in 0 W/m2
21:29 62.4 °F 58.7 °F 29.84 in West 4.7 mph 13 mph 87.8% 0.01 in 0 W/m2
21:34 62.4 °F 58.5 °F 29.84 in West 7.3 mph 16 mph 87% 0.01 in 0 W/m2
21:39 62.4 °F 58.5 °F 29.84 in West 4.8 mph 14 mph 87% 0.01 in 0 W/m2
21:44 62.4 °F 58.5 °F 29.84 in West 3.1 mph 8 mph 87% 0.00 in 0 W/m2
21:49 62.4 °F 58.5 °F 29.84 in WSW 8.8 mph 16 mph 87% 0.00 in 0 W/m2
21:54 62.4 °F 58.5 °F 29.85 in WSW 4.9 mph 14 mph 87% 0.00 in 0 W/m2
21:59 62.2 °F 58.3 °F 29.85 in WSW 9 mph 14 mph 87% 0.00 in 0 W/m2
22:04 62.1 °F 58.1 °F 29.84 in WSW 7.8 mph 14 mph 87% 0.00 in 0 W/m2
22:09 62.1 °F 58.1 °F 29.84 in SW 8.4 mph 15 mph 87% 0.00 in 0 W/m2
22:14 61.9 °F 57.9 °F 29.84 in SW 7.4 mph 15 mph 87% 0.00 in 0 W/m2
22:19 61.9 °F 57.9 °F 29.84 in WSW 9.8 mph 15 mph 87% 0.00 in 0 W/m2
22:24 61.7 °F 57.7 °F 29.84 in WSW 7 mph 12 mph 87% 0.00 in 0 W/m2
22:29 61.5 °F 57.6 °F 29.84 in WSW 4.9 mph 11 mph 87% 0.00 in 0 W/m2
22:34 61.4 °F 57.5 °F 29.84 in WSW 5.9 mph 12 mph 87% 0.00 in 0 W/m2
22:39 61.3 °F 57.4 °F 29.84 in WSW 6.1 mph 14 mph 87% 0.00 in 0 W/m2
22:44 61.3 °F 57.4 °F 29.83 in WSW 5.4 mph 16 mph 87% 0.00 in 0 W/m2
22:49 61.3 °F 57.4 °F 29.83 in SW 5.5 mph 11 mph 87% 0.00 in 0 W/m2
22:54 61.3 °F 57.4 °F 29.83 in SW 3.8 mph 9 mph 87% 0.00 in 0 W/m2
22:59 61.3 °F 57.4 °F 29.83 in WSW 8.4 mph 17 mph 87% 0.00 in 0 W/m2
23:04 61.3 °F 57.4 °F 29.83 in WSW 6.4 mph 12 mph 87% 0.00 in 0 W/m2
23:09 61.3 °F 57.6 °F 29.83 in WSW 5.2 mph 10 mph 87.6% 0.00 in 0 W/m2
23:14 61.3 °F 57.7 °F 29.83 in WSW 6.4 mph 15 mph 88% 0.00 in 0 W/m2
23:19 61.3 °F 57.7 °F 29.83 in WSW 6.9 mph 13 mph 88% 0.00 in 0 W/m2
23:24 61.3 °F 57.7 °F 29.83 in WSW 7.6 mph 18 mph 88% 0.00 in 0 W/m2
23:29 61.3 °F 57.7 °F 29.83 in SW 8 mph 18 mph 88% 0.00 in 0 W/m2
23:34 61.3 °F 57.7 °F 29.83 in WSW 8.4 mph 15 mph 88% 0.00 in 0 W/m2
23:39 61.3 °F 57.7 °F 29.82 in WSW 6.6 mph 13 mph 88% 0.00 in 0 W/m2
23:44 61.3 °F 57.7 °F 29.82 in West 5.9 mph 13 mph 88% 0.00 in 0 W/m2
23:49 61.3 °F 57.7 °F 29.82 in SW 5.6 mph 11 mph 88% 0.00 in 0 W/m2
23:54 61.3 °F 57.7 °F 29.82 in SW 8 mph 14 mph 88% 0.00 in 0 W/m2
23:59 61.5 °F 57.9 °F 29.82 in WSW 8.2 mph 16 mph 88% 0.00 in 0 W/m2
Bath Spa Weather
Compliments of Weather Underground - 2 mb